x

South Kodiak - 310nm Ssw Of Kodiak, Ak (46066) Wave Buoy

2:50pm - Sun 25th Sep 2016 All times are UTC.

  • Sig Wave height 4.9ft
  • Swell Direction
  • Peak Period 17s
  • Average Period 6s
  • Wind
    16mph, 18mph gusts
  • Sea Temp 55°f
  • Air Temp 52°f
  • Sea Pressure 1016.3mb

More Historic Weather Station data

Upgrade to MSW Pro to gain access to the past 30 days of data for over 8000 Wavebouys and Weather Stations around the globe.

Join Pro

Comparision Forecast

View Surf forecast
   
Sun 09/25 2:50pm 5ft 17s 6s 16 18 mph 1016.3mb 55f 52f
1:50pm 4.5ft 8s 6s 13 18 mph 1016mb 55f 53f
12:50pm 5ft 17s 6s 16 18 mph 1015.7mb 55f 53f
11:50am 4.5ft 8s 6s 16 20 mph 1015.6mb 55f 53f
10:50am 4.5ft 8s 6s 16 18 mph 1015.3mb 55f 53f
9:50am 4.5ft 8s 6s 13 16 mph 1015.1mb 55f 53f
8:50am 4.5ft 8s 6s 11 13 mph 1014.8mb 55f 53f
7:50am 4.5ft 8s 6s 11 13 mph 1014.5mb 55f 53f
6:50am 4.5ft 8s 6s 13 16 mph 1014.3mb 55f 53f
5:50am 5ft 8s 6s 13 18 mph 1013.8mb 55f 52f
4:50am 5ft 8s 6s 13 16 mph 1013.2mb 55f 53f
3:50am 5ft 9s 6s 11 13 mph 1012.7mb 55f 53f
2:50am 5ft 9s 6s 11 16 mph 1012.5mb 55f 53f
1:50am 5.5ft 8s 7s 13 16 mph 1012.3mb 55f 53f
12:50am 6ft 8s 7s 11 13 mph 1012.2mb 55f 53f
Sat 09/24 11:50pm 5ft 9s 7s 11 13 mph 1012.1mb 55f 54f
10:50pm 5.5ft 8s 7s 11 13 mph 1012.1mb 55f 53f
9:50pm 5ft 8s 7s 11 13 mph 1011.9mb 55f 53f
8:50pm 5ft 9s 7s 11 13 mph 1011.5mb 55f 54f
7:50pm 5ft 8s 7s 7 11 mph 1011.1mb 55f 53f
6:50pm 5.5ft 9s 6s 7 9 mph 1010.5mb 55f 53f
5:50pm 5ft 8s 6s 9 11 mph 1009.9mb 55f 53f
4:50pm 6ft 9s 6s 11 13 mph 1009.4mb 55f 53f
3:50pm 6ft 8s 6s 9 11 mph 1009mb 55f 52f
2:50pm 6ft 9s 6s 11 13 mph 1008.6mb 55f 53f
1:50pm 6ft 9s 6s 9 11 mph 1008.3mb 55f 52f
12:50pm 6.5ft 8s 6s 11 13 mph 1007.9mb 55f 52f
11:50am 6.5ft 8s 7s 16 18 mph 1007.7mb 55f 53f
9:50am 6.5ft 9s 7s 13 16 mph 1007.5mb 55f 53f
8:50am 6.5ft 8s 7s 13 16 mph 1007.2mb 55f 53f
7:50am 7ft 8s 7s 16 18 mph 1006.7mb 55f 53f
6:50am 6.5ft 8s 7s 16 18 mph 1006.3mb 55f 53f
5:50am 6ft 8s 6s 13 18 mph 1005.8mb 55f 53f
4:50am 7ft 9s 6s 16 18 mph 1005.3mb 55f 52f
3:50am 6.5ft 9s 6s 13 18 mph 1004.8mb 55f 53f
2:50am 7ft 9s 6s 16 20 mph 1004.4mb 55f 53f
1:50am 7ft 8s 6s 18 22 mph 1004mb 55f 53f
12:50am 8ft 9s 7s 16 18 mph 1004mb 55f 53f
Fri 09/23 11:50pm 7.5ft 8s 7s 13 18 mph 1003.7mb 55f 53f
10:50pm 7.5ft 9s 7s 16 18 mph 1003.6mb 55f 53f
9:50pm 8ft 9s 7s 13 16 mph 1003.6mb 55f 53f
8:50pm 8ft 9s 7s 16 18 mph 1003mb 55f 53f
7:50pm 7.5ft 9s 7s 13 18 mph 1002.7mb 55f 53f
5:50pm 7ft 8s 7s 18 20 mph 1001.7mb 55f 53f
4:50pm  -   -   -  11 16 mph 1001.7mb 55f 51f
3:50pm 7.5ft 9s 7s 18 22 mph 1001.1mb 55f 52f
2:50pm 9ft 9s 7s 20 25 mph 1000.9mb 55f 53f
12:50pm 9ft 9s 7s 20 25 mph 1000.7mb 55f 52f
11:50am 10ft 9s 7s 20 22 mph 1000.6mb 55f 52f
10:50am 9.5ft 8s 7s 18 22 mph 1000.5mb 55f 53f
9:50am 10ft 9s 7s 18 22 mph 1000.7mb 55f 53f
8:50am 10ft 9s 7s 16 20 mph 1000.6mb 55f 53f
7:50am 8.5ft 10s 7s 20 25 mph 1000.3mb 55f 53f
6:50am 10ft 9s 7s 13 18 mph 1000.4mb 55f 51f
5:50am 9ft 10s 7s 22 29 mph 999.8mb 55f 52f
4:50am 9ft 9s 7s 22 27 mph 999.4mb 55f 53f
3:50am 9ft 9s 6s 22 27 mph 999.2mb 55f 53f
2:50am 8.5ft 7s 6s 22 27 mph 998.9mb 55f 54f
1:50am 10ft 8s 7s 25 31 mph 998.8mb 55f 54f
12:50am 9ft 8s 6s 22 31 mph 998.8mb 55f 53f
Thu 09/22 11:50pm 10ft 9s 6s 25 29 mph 998.7mb 55f 54f
10:50pm 10ft 8s 6s 22 27 mph 998.7mb 55f 54f
9:50pm  -   -   -  25 31 mph 998.5mb 55f 54f
3:50pm 8ft 7s 6s 22 27 mph 995.3mb 55f 54f
2:50pm 8ft 7s 6s 22 27 mph 994.9mb 55f 54f
1:50pm 8ft 7s  -  20 27 mph 994.6mb 55f 54f
12:50pm 8ft 9s 6s 20 25 mph 994.3mb 55f 53f
11:50am 8ft 9s 6s 22 27 mph 994.2mb 55f 53f
10:50am 8ft 9s 7s 20 25 mph 994.2mb 55f 53f
9:50am 7.5ft 10s 6s 25 27 mph 994.2mb 55f 54f
8:50am 7ft 10s 6s 22 27 mph 994.3mb 55f 53f
7:50am 9ft 10s 7s 20 22 mph 994.2mb 55f 53f
6:50am 7.5ft 10s 6s 18 22 mph 994.1mb 55f 52f
5:50am 8ft 11s 6s 20 29 mph 994mb 55f 53f
4:50am 8ft 10s 6s 20 22 mph 993.8mb 55f 53f
3:50am 8.5ft 10s 7s 18 20 mph 993.8mb 55f 53f
2:50am 8ft 11s 7s 20 25 mph 994mb 55f 53f
1:50am 9ft 10s 7s 18 20 mph 994.3mb 55f 53f
12:50am 10ft 10s 8s 16 20 mph 994.8mb 56f 53f
Wed 09/21 11:50pm 9.5ft 10s 7s 16 20 mph 995.4mb 56f 53f
10:50pm 10ft 10s 8s 16 20 mph 995.9mb 56f 53f
9:50pm 9ft 10s 8s 13 16 mph 996.6mb 55f 53f
8:50pm 9ft 11s 8s 11 16 mph 997.2mb 55f 53f
7:50pm 10ft 11s 8s 13 18 mph 997.7mb 55f 53f
6:50pm 9.5ft 11s 8s 13 18 mph 998mb 55f 53f
5:50pm 10ft 11s 8s 16 20 mph 998.4mb 55f 53f
4:50pm 11ft 11s 8s 16 18 mph 999mb 55f 52f